TimeEAT,TemperatureF,Dew PointF,Humidity,Sea Level PressureIn,VisibilityMPH,Wind Direction,Wind SpeedMPH,Gust SpeedMPH,PrecipitationIn,Events,Conditions,WindDirDegrees,DateUTC
12:00 AM,73.4,64.4,73,29.95,-9999.0,Calm,Calm,-,N/A,,Clear,0,2013-02-07 21:00:00
1:00 AM,73.4,62.6,69,29.95,-9999.0,Calm,Calm,-,N/A,,Clear,0,2013-02-07 22:00:00
2:00 AM,71.6,62.6,73,29.95,-9999.0,Calm,Calm,-,N/A,,Clear,0,2013-02-07 23:00:00
3:00 AM,69,62,74,,16,Calm,Calm,,,,Scattered Clouds,,2013-02-08 00:00:00
3:00 AM,69.8,62.6,78,29.95,-9999.0,Calm,Calm,-,N/A,,Clear,0,2013-02-08 00:00:00
4:00 AM,69.8,62.6,78,29.95,-9999.0,Calm,Calm,-,N/A,,Clear,0,2013-02-08 01:00:00
5:00 AM,68.0,62.6,83,29.95,-9999.0,Calm,Calm,-,N/A,,Clear,0,2013-02-08 02:00:00
6:00 AM,68.0,62.6,83,29.95,-9999.0,Calm,Calm,-,N/A,,Clear,0,2013-02-08 03:00:00
7:00 AM,66.2,60.8,83,29.95,6.2,East,3.5,-,N/A,,Partly Cloudy,90,2013-02-08 04:00:00
8:00 AM,69.8,59.0,68,29.98,6.2,Calm,Calm,-,N/A,,Partly Cloudy,0,2013-02-08 05:00:00
9:00 AM,77.0,55.4,47,29.98,6.2,SE,4.6,-,N/A,,Scattered Clouds,130,2013-02-08 06:00:00
10:00 AM,80.6,57.2,45,30.01,6.2,SE,3.5,-,N/A,,Scattered Clouds,130,2013-02-08 07:00:00
11:00 AM,82.4,57.2,42,30.01,6.2,Calm,Calm,-,N/A,,Scattered Clouds,0,2013-02-08 08:00:00
1:00 PM,86.0,55.4,35,29.95,6.2,WSW,11.5,-,N/A,,Scattered Clouds,240,2013-02-08 10:00:00
3:00 PM,89,55,21,,19,WSW,13.8,,,,Scattered Clouds,240,2013-02-08 12:00:00
4:00 PM,89.6,51.8,27,29.86,6.2,WSW,13.8,-,N/A,,Scattered Clouds,240,2013-02-08 13:00:00
5:00 PM,86.0,66.2,51,29.83,6.2,WSW,19.6,-,N/A,,Scattered Clouds,240,2013-02-08 14:00:00
7:00 PM,78.8,66.2,65,29.86,6.2,West,11.5,-,N/A,,Mostly Cloudy,270,2013-02-08 16:00:00
8:00 PM,77.0,66.2,69,29.89,6.2,West,11.5,-,N/A,,Scattered Clouds,270,2013-02-08 17:00:00
9:00 PM,74,68,77,,16,WSW,5.8,,,,,240,2013-02-08 18:00:00
10:00 PM,73.4,68.0,83,29.95,-9999.0,Calm,Calm,-,N/A,,Clear,0,2013-02-08 19:00:00
11:00 PM,71.6,68.0,88,29.95,-9999.0,NE,4.6,-,N/A,,Clear,50,2013-02-08 20:00:00